sensor_id;sensor_type;location;lat;lon;timestamp;temperature;humidity
23540;DHT22;11947;50.810;4.394;2023-07-29T00:01:36;19.70;99.90
23540;DHT22;11947;50.810;4.394;2023-07-29T00:04:03;19.60;99.90
23540;DHT22;11947;50.810;4.394;2023-07-29T00:06:30;19.50;99.90
23540;DHT22;11947;50.810;4.394;2023-07-29T00:08:55;19.40;99.90
23540;DHT22;11947;50.810;4.394;2023-07-29T00:11:21;19.30;99.90
23540;DHT22;11947;50.810;4.394;2023-07-29T00:13:52;19.30;99.90
23540;DHT22;11947;50.810;4.394;2023-07-29T00:16:19;19.30;99.90
23540;DHT22;11947;50.810;4.394;2023-07-29T00:19:06;19.20;99.90
23540;DHT22;11947;50.810;4.394;2023-07-29T00:24:01;19.20;99.90
23540;DHT22;11947;50.810;4.394;2023-07-29T00:26:30;19.10;99.90
23540;DHT22;11947;50.810;4.394;2023-07-29T00:29:00;19.10;99.90
23540;DHT22;11947;50.810;4.394;2023-07-29T00:31:28;19.00;99.90
23540;DHT22;11947;50.810;4.394;2023-07-29T00:33:56;19.00;99.90
23540;DHT22;11947;50.810;4.394;2023-07-29T00:38:58;19.00;99.90
23540;DHT22;11947;50.810;4.394;2023-07-29T00:41:25;18.90;99.90
23540;DHT22;11947;50.810;4.394;2023-07-29T00:43:51;18.90;99.90
23540;DHT22;11947;50.810;4.394;2023-07-29T00:46:53;18.90;99.90
23540;DHT22;11947;50.810;4.394;2023-07-29T00:49:26;18.80;99.90
23540;DHT22;11947;50.810;4.394;2023-07-29T00:51:55;18.80;99.90
23540;DHT22;11947;50.810;4.394;2023-07-29T00:54:21;18.90;99.90
23540;DHT22;11947;50.810;4.394;2023-07-29T00:56:48;18.80;99.90
23540;DHT22;11947;50.810;4.394;2023-07-29T01:01:49;18.70;99.90
23540;DHT22;11947;50.810;4.394;2023-07-29T01:04:15;18.70;99.90
23540;DHT22;11947;50.810;4.394;2023-07-29T01:10:03;18.70;99.90
23540;DHT22;11947;50.810;4.394;2023-07-29T01:12:54;18.60;99.90
23540;DHT22;11947;50.810;4.394;2023-07-29T01:15:31;18.60;99.90
23540;DHT22;11947;50.810;4.394;2023-07-29T01:18:16;18.80;99.90
23540;DHT22;11947;50.810;4.394;2023-07-29T01:20:44;18.70;99.90
23540;DHT22;11947;50.810;4.394;2023-07-29T01:23:11;18.60;99.90
23540;DHT22;11947;50.810;4.394;2023-07-29T01:28:05;18.60;99.90
23540;DHT22;11947;50.810;4.394;2023-07-29T01:30:35;18.70;99.90
23540;DHT22;11947;50.810;4.394;2023-07-29T01:36:20;18.70;99.90
23540;DHT22;11947;50.810;4.394;2023-07-29T01:38:49;18.70;99.90
23540;DHT22;11947;50.810;4.394;2023-07-29T01:41:17;18.60;99.90
23540;DHT22;11947;50.810;4.394;2023-07-29T01:43:45;18.60;99.90
23540;DHT22;11947;50.810;4.394;2023-07-29T01:46:12;18.60;99.90
23540;DHT22;11947;50.810;4.394;2023-07-29T01:48:38;18.60;99.90
23540;DHT22;11947;50.810;4.394;2023-07-29T01:51:06;18.50;99.90
23540;DHT22;11947;50.810;4.394;2023-07-29T01:53:37;18.60;99.90
23540;DHT22;11947;50.810;4.394;2023-07-29T01:56:06;18.50;99.90
23540;DHT22;11947;50.810;4.394;2023-07-29T01:58:32;18.50;99.90
23540;DHT22;11947;50.810;4.394;2023-07-29T02:01:03;18.40;99.90
23540;DHT22;11947;50.810;4.394;2023-07-29T02:03:29;18.40;99.90
23540;DHT22;11947;50.810;4.394;2023-07-29T02:05:56;18.40;99.90
23540;DHT22;11947;50.810;4.394;2023-07-29T02:08:27;18.40;99.90
23540;DHT22;11947;50.810;4.394;2023-07-29T02:10:53;18.30;99.90
23540;DHT22;11947;50.810;4.394;2023-07-29T02:13:22;18.20;99.90
23540;DHT22;11947;50.810;4.394;2023-07-29T02:16:01;18.30;99.90
23540;DHT22;11947;50.810;4.394;2023-07-29T02:18:35;18.30;99.90
23540;DHT22;11947;50.810;4.394;2023-07-29T02:21:06;18.30;99.90
23540;DHT22;11947;50.810;4.394;2023-07-29T02:23:32;18.30;99.90
23540;DHT22;11947;50.810;4.394;2023-07-29T02:25:59;18.30;99.90
23540;DHT22;11947;50.810;4.394;2023-07-29T02:41:22;18.30;99.90
23540;DHT22;11947;50.810;4.394;2023-07-29T02:43:49;18.30;99.90
23540;DHT22;11947;50.810;4.394;2023-07-29T02:46:15;18.40;99.90
23540;DHT22;11947;50.810;4.394;2023-07-29T03:06:51;18.00;99.90
23540;DHT22;11947;50.810;4.394;2023-07-29T03:19:38;17.90;99.90
23540;DHT22;11947;50.810;4.394;2023-07-29T03:22:05;18.00;99.90
23540;DHT22;11947;50.810;4.394;2023-07-29T03:27:06;18.00;99.90
23540;DHT22;11947;50.810;4.394;2023-07-29T03:29:33;17.90;99.90
23540;DHT22;11947;50.810;4.394;2023-07-29T03:31:59;17.90;99.90
23540;DHT22;11947;50.810;4.394;2023-07-29T03:34:24;18.00;99.90
23540;DHT22;11947;50.810;4.394;2023-07-29T03:36:51;18.00;99.90
23540;DHT22;11947;50.810;4.394;2023-07-29T03:39:18;17.90;99.90
23540;DHT22;11947;50.810;4.394;2023-07-29T03:41:44;17.90;99.90
23540;DHT22;11947;50.810;4.394;2023-07-29T03:44:11;18.00;99.90
23540;DHT22;11947;50.810;4.394;2023-07-29T03:46:36;17.90;99.90
23540;DHT22;11947;50.810;4.394;2023-07-29T03:49:03;17.90;99.90
23540;DHT22;11947;50.810;4.394;2023-07-29T03:51:29;17.90;99.90
23540;DHT22;11947;50.810;4.394;2023-07-29T03:53:54;17.80;99.90
23540;DHT22;11947;50.810;4.394;2023-07-29T03:56:21;17.90;99.90
23540;DHT22;11947;50.810;4.394;2023-07-29T03:58:52;17.90;99.90
23540;DHT22;11947;50.810;4.394;2023-07-29T04:01:18;18.00;99.90
23540;DHT22;11947;50.810;4.394;2023-07-29T04:03:45;18.00;99.90
23540;DHT22;11947;50.810;4.394;2023-07-29T04:06:13;18.00;99.90
23540;DHT22;11947;50.810;4.394;2023-07-29T04:08:39;17.90;99.90
23540;DHT22;11947;50.810;4.394;2023-07-29T04:11:05;18.00;99.90
23540;DHT22;11947;50.810;4.394;2023-07-29T04:13:31;18.00;99.90
23540;DHT22;11947;50.810;4.394;2023-07-29T04:15:57;18.00;99.90
23540;DHT22;11947;50.810;4.394;2023-07-29T04:18:24;18.00;99.90
23540;DHT22;11947;50.810;4.394;2023-07-29T04:20:50;18.10;99.90
23540;DHT22;11947;50.810;4.394;2023-07-29T04:23:15;18.10;99.90
23540;DHT22;11947;50.810;4.394;2023-07-29T04:25:41;18.00;99.90
23540;DHT22;11947;50.810;4.394;2023-07-29T04:28:07;17.90;99.90
23540;DHT22;11947;50.810;4.394;2023-07-29T04:30:32;18.00;99.90
23540;DHT22;11947;50.810;4.394;2023-07-29T04:32:59;17.90;99.90
23540;DHT22;11947;50.810;4.394;2023-07-29T04:35:25;17.90;99.90
23540;DHT22;11947;50.810;4.394;2023-07-29T04:37:55;18.00;99.90
23540;DHT22;11947;50.810;4.394;2023-07-29T04:40:28;18.00;99.90
23540;DHT22;11947;50.810;4.394;2023-07-29T04:42:54;18.10;99.90
23540;DHT22;11947;50.810;4.394;2023-07-29T04:45:20;17.90;99.90
23540;DHT22;11947;50.810;4.394;2023-07-29T04:47:46;18.00;99.90
23540;DHT22;11947;50.810;4.394;2023-07-29T04:50:14;17.90;99.90
23540;DHT22;11947;50.810;4.394;2023-07-29T04:52:40;17.90;99.90
23540;DHT22;11947;50.810;4.394;2023-07-29T04:55:06;17.80;99.90
23540;DHT22;11947;50.810;4.394;2023-07-29T04:57:32;17.80;99.90
23540;DHT22;11947;50.810;4.394;2023-07-29T04:59:59;17.70;99.90
23540;DHT22;11947;50.810;4.394;2023-07-29T05:05:02;17.80;99.90
23540;DHT22;11947;50.810;4.394;2023-07-29T05:07:29;17.80;99.90
23540;DHT22;11947;50.810;4.394;2023-07-29T05:09:55;17.80;99.90
23540;DHT22;11947;50.810;4.394;2023-07-29T05:12:21;17.80;99.90
23540;DHT22;11947;50.810;4.394;2023-07-29T05:14:47;17.80;99.90
23540;DHT22;11947;50.810;4.394;2023-07-29T05:17:13;17.80;99.90
23540;DHT22;11947;50.810;4.394;2023-07-29T05:19:39;17.80;99.90
23540;DHT22;11947;50.810;4.394;2023-07-29T05:22:07;17.90;99.90
23540;DHT22;11947;50.810;4.394;2023-07-29T05:24:33;18.00;99.90
23540;DHT22;11947;50.810;4.394;2023-07-29T05:26:59;17.90;99.90
23540;DHT22;11947;50.810;4.394;2023-07-29T05:29:25;18.00;99.90
23540;DHT22;11947;50.810;4.394;2023-07-29T05:31:50;18.00;99.90
23540;DHT22;11947;50.810;4.394;2023-07-29T05:34:19;18.10;99.90
23540;DHT22;11947;50.810;4.394;2023-07-29T05:36:44;18.20;99.90
23540;DHT22;11947;50.810;4.394;2023-07-29T05:39:12;18.30;99.90
23540;DHT22;11947;50.810;4.394;2023-07-29T05:41:37;18.30;99.90
23540;DHT22;11947;50.810;4.394;2023-07-29T05:44:03;18.40;99.90
23540;DHT22;11947;50.810;4.394;2023-07-29T05:46:30;18.40;99.90
23540;DHT22;11947;50.810;4.394;2023-07-29T05:48:57;18.50;99.90
23540;DHT22;11947;50.810;4.394;2023-07-29T05:51:25;18.70;99.90
23540;DHT22;11947;50.810;4.394;2023-07-29T05:53:50;18.90;99.90
23540;DHT22;11947;50.810;4.394;2023-07-29T05:56:19;18.80;99.90
23540;DHT22;11947;50.810;4.394;2023-07-29T05:58:44;19.10;99.90
23540;DHT22;11947;50.810;4.394;2023-07-29T06:01:13;19.20;99.90
23540;DHT22;11947;50.810;4.394;2023-07-29T06:03:43;19.30;99.90
23540;DHT22;11947;50.810;4.394;2023-07-29T06:06:10;19.40;99.90
23540;DHT22;11947;50.810;4.394;2023-07-29T06:08:35;19.60;99.90
23540;DHT22;11947;50.810;4.394;2023-07-29T06:11:01;19.50;99.90
23540;DHT22;11947;50.810;4.394;2023-07-29T06:13:32;19.50;99.90
23540;DHT22;11947;50.810;4.394;2023-07-29T06:16:02;19.70;99.90
23540;DHT22;11947;50.810;4.394;2023-07-29T06:18:31;19.80;99.90
23540;DHT22;11947;50.810;4.394;2023-07-29T06:20:57;19.90;99.90
23540;DHT22;11947;50.810;4.394;2023-07-29T06:23:29;20.00;99.90
23540;DHT22;11947;50.810;4.394;2023-07-29T06:25:55;20.20;99.90
23540;DHT22;11947;50.810;4.394;2023-07-29T06:28:20;20.00;99.90
23540;DHT22;11947;50.810;4.394;2023-07-29T06:30:46;20.10;99.90
23540;DHT22;11947;50.810;4.394;2023-07-29T06:33:12;20.20;99.90
23540;DHT22;11947;50.810;4.394;2023-07-29T06:35:38;20.30;99.90
23540;DHT22;11947;50.810;4.394;2023-07-29T06:38:07;20.30;99.90
23540;DHT22;11947;50.810;4.394;2023-07-29T06:40:35;20.40;99.90
23540;DHT22;11947;50.810;4.394;2023-07-29T06:43:02;20.80;99.90
23540;DHT22;11947;50.810;4.394;2023-07-29T06:45:31;20.90;99.90
23540;DHT22;11947;50.810;4.394;2023-07-29T06:47:58;20.90;99.90
23540;DHT22;11947;50.810;4.394;2023-07-29T06:50:27;20.80;99.90
23540;DHT22;11947;50.810;4.394;2023-07-29T06:52:53;20.70;99.90
23540;DHT22;11947;50.810;4.394;2023-07-29T06:55:21;20.60;99.90
23540;DHT22;11947;50.810;4.394;2023-07-29T06:57:47;20.80;99.90
23540;DHT22;11947;50.810;4.394;2023-07-29T07:00:17;20.80;99.90
23540;DHT22;11947;50.810;4.394;2023-07-29T07:02:43;20.80;99.90
23540;DHT22;11947;50.810;4.394;2023-07-29T07:05:09;20.70;99.90
23540;DHT22;11947;50.810;4.394;2023-07-29T07:10:10;20.50;99.90
23540;DHT22;11947;50.810;4.394;2023-07-29T07:12:39;20.50;99.90
23540;DHT22;11947;50.810;4.394;2023-07-29T07:15:05;20.50;99.90
23540;DHT22;11947;50.810;4.394;2023-07-29T07:17:32;20.40;99.90
23540;DHT22;11947;50.810;4.394;2023-07-29T07:19:57;20.30;99.90
23540;DHT22;11947;50.810;4.394;2023-07-29T07:25:00;20.50;99.90
23540;DHT22;11947;50.810;4.394;2023-07-29T07:27:28;20.60;99.90
23540;DHT22;11947;50.810;4.394;2023-07-29T07:29:54;20.60;99.90
23540;DHT22;11947;50.810;4.394;2023-07-29T07:32:19;20.60;99.90
23540;DHT22;11947;50.810;4.394;2023-07-29T07:34:45;20.60;99.90
23540;DHT22;11947;50.810;4.394;2023-07-29T07:37:11;20.60;99.90
23540;DHT22;11947;50.810;4.394;2023-07-29T07:39:38;20.60;99.90
23540;DHT22;11947;50.810;4.394;2023-07-29T07:42:04;20.50;99.90
23540;DHT22;11947;50.810;4.394;2023-07-29T07:44:30;20.50;99.90
23540;DHT22;11947;50.810;4.394;2023-07-29T07:46:59;20.60;99.90
23540;DHT22;11947;50.810;4.394;2023-07-29T07:49:27;20.70;99.90
23540;DHT22;11947;50.810;4.394;2023-07-29T07:51:53;20.70;99.90
23540;DHT22;11947;50.810;4.394;2023-07-29T07:54:20;20.80;99.90
23540;DHT22;11947;50.810;4.394;2023-07-29T07:56:46;20.80;99.90
23540;DHT22;11947;50.810;4.394;2023-07-29T07:59:14;21.20;99.90
23540;DHT22;11947;50.810;4.394;2023-07-29T08:01:44;21.40;99.90
23540;DHT22;11947;50.810;4.394;2023-07-29T08:04:14;21.40;99.90
23540;DHT22;11947;50.810;4.394;2023-07-29T08:06:41;21.50;99.90
23540;DHT22;11947;50.810;4.394;2023-07-29T08:09:09;21.70;99.90
23540;DHT22;11947;50.810;4.394;2023-07-29T08:11:35;21.90;99.90
23540;DHT22;11947;50.810;4.394;2023-07-29T08:14:01;21.90;99.90
23540;DHT22;11947;50.810;4.394;2023-07-29T08:16:27;22.00;99.90
23540;DHT22;11947;50.810;4.394;2023-07-29T08:18:56;22.40;99.90
23540;DHT22;11947;50.810;4.394;2023-07-29T08:21:21;22.80;99.90
23540;DHT22;11947;50.810;4.394;2023-07-29T08:23:47;23.10;99.90
23540;DHT22;11947;50.810;4.394;2023-07-29T08:26:13;23.20;99.90
23540;DHT22;11947;50.810;4.394;2023-07-29T08:28:45;23.10;99.90
23540;DHT22;11947;50.810;4.394;2023-07-29T08:31:11;23.20;99.90
23540;DHT22;11947;50.810;4.394;2023-07-29T08:33:38;23.20;99.90
23540;DHT22;11947;50.810;4.394;2023-07-29T08:36:04;23.40;99.90
23540;DHT22;11947;50.810;4.394;2023-07-29T08:38:31;23.60;99.90
23540;DHT22;11947;50.810;4.394;2023-07-29T08:41:16;23.60;99.90
23540;DHT22;11947;50.810;4.394;2023-07-29T08:47:14;24.40;99.90
23540;DHT22;11947;50.810;4.394;2023-07-29T08:49:46;24.40;99.90
23540;DHT22;11947;50.810;4.394;2023-07-29T08:52:12;24.20;99.90
23540;DHT22;11947;50.810;4.394;2023-07-29T08:54:39;24.20;99.90
23540;DHT22;11947;50.810;4.394;2023-07-29T08:57:07;23.90;99.90
23540;DHT22;11947;50.810;4.394;2023-07-29T08:59:35;23.60;99.90
23540;DHT22;11947;50.810;4.394;2023-07-29T09:02:02;23.70;99.90
23540;DHT22;11947;50.810;4.394;2023-07-29T09:04:30;23.80;99.90
23540;DHT22;11947;50.810;4.394;2023-07-29T09:06:56;24.10;99.90
23540;DHT22;11947;50.810;4.394;2023-07-29T09:09:25;24.70;99.90
23540;DHT22;11947;50.810;4.394;2023-07-29T09:12:00;24.90;99.90
23540;DHT22;11947;50.810;4.394;2023-07-29T09:17:10;25.30;99.90
23540;DHT22;11947;50.810;4.394;2023-07-29T09:19:36;25.30;99.90
23540;DHT22;11947;50.810;4.394;2023-07-29T09:24:38;25.00;99.90
23540;DHT22;11947;50.810;4.394;2023-07-29T09:27:03;25.00;99.90
23540;DHT22;11947;50.810;4.394;2023-07-29T09:29:29;24.90;99.90
23540;DHT22;11947;50.810;4.394;2023-07-29T09:34:41;24.70;99.90
23540;DHT22;11947;50.810;4.394;2023-07-29T09:37:25;24.80;99.90
23540;DHT22;11947;50.810;4.394;2023-07-29T09:39:53;24.70;99.90
23540;DHT22;11947;50.810;4.394;2023-07-29T09:47:32;25.30;99.90
23540;DHT22;11947;50.810;4.394;2023-07-29T09:49:59;25.10;99.90
23540;DHT22;11947;50.810;4.394;2023-07-29T09:52:32;24.80;99.90
23540;DHT22;11947;50.810;4.394;2023-07-29T09:55:42;24.30;99.90
23540;DHT22;11947;50.810;4.394;2023-07-29T09:58:51;24.50;99.90
23540;DHT22;11947;50.810;4.394;2023-07-29T10:04:45;25.20;99.90
23540;DHT22;11947;50.810;4.394;2023-07-29T10:07:41;25.20;99.90
23540;DHT22;11947;50.810;4.394;2023-07-29T10:10:11;24.80;99.90
23540;DHT22;11947;50.810;4.394;2023-07-29T10:12:49;24.60;99.90
23540;DHT22;11947;50.810;4.394;2023-07-29T10:18:40;24.80;99.90
23540;DHT22;11947;50.810;4.394;2023-07-29T10:21:09;25.10;99.90
23540;DHT22;11947;50.810;4.394;2023-07-29T10:23:47;24.90;99.90
23540;DHT22;11947;50.810;4.394;2023-07-29T10:26:22;24.70;99.90
23540;DHT22;11947;50.810;4.394;2023-07-29T10:28:52;23.90;99.90
23540;DHT22;11947;50.810;4.394;2023-07-29T10:31:19;22.90;99.90
23540;DHT22;11947;50.810;4.394;2023-07-29T10:33:46;21.90;99.90
23540;DHT22;11947;50.810;4.394;2023-07-29T10:36:12;21.60;99.90
23540;DHT22;11947;50.810;4.394;2023-07-29T10:38:38;21.80;99.90
23540;DHT22;11947;50.810;4.394;2023-07-29T10:41:05;22.00;99.90
23540;DHT22;11947;50.810;4.394;2023-07-29T10:43:37;22.20;99.90
23540;DHT22;11947;50.810;4.394;2023-07-29T10:46:18;22.90;99.90
23540;DHT22;11947;50.810;4.394;2023-07-29T10:48:52;23.50;99.90
23540;DHT22;11947;50.810;4.394;2023-07-29T10:51:29;24.20;99.90
23540;DHT22;11947;50.810;4.394;2023-07-29T10:54:01;24.20;99.90
23540;DHT22;11947;50.810;4.394;2023-07-29T10:56:33;23.80;99.90
23540;DHT22;11947;50.810;4.394;2023-07-29T11:02:01;23.10;99.90
23540;DHT22;11947;50.810;4.394;2023-07-29T11:04:29;22.90;99.90
23540;DHT22;11947;50.810;4.394;2023-07-29T11:07:27;22.60;99.90
23540;DHT22;11947;50.810;4.394;2023-07-29T11:09:54;22.60;99.90
23540;DHT22;11947;50.810;4.394;2023-07-29T11:17:51;22.80;99.90
23540;DHT22;11947;50.810;4.394;2023-07-29T11:20:18;22.60;99.90
23540;DHT22;11947;50.810;4.394;2023-07-29T11:22:44;22.50;99.90
23540;DHT22;11947;50.810;4.394;2023-07-29T11:25:13;22.30;99.90
23540;DHT22;11947;50.810;4.394;2023-07-29T11:30:36;21.80;99.90
23540;DHT22;11947;50.810;4.394;2023-07-29T11:33:31;21.70;99.90
23540;DHT22;11947;50.810;4.394;2023-07-29T11:36:01;21.60;99.90
23540;DHT22;11947;50.810;4.394;2023-07-29T11:38:26;21.60;99.90
23540;DHT22;11947;50.810;4.394;2023-07-29T11:41:19;21.70;99.90
23540;DHT22;11947;50.810;4.394;2023-07-29T11:44:26;21.90;99.90
23540;DHT22;11947;50.810;4.394;2023-07-29T11:47:10;22.10;99.90
23540;DHT22;11947;50.810;4.394;2023-07-29T11:50:21;22.70;99.90
23540;DHT22;11947;50.810;4.394;2023-07-29T11:55:25;28.20;99.90
23540;DHT22;11947;50.810;4.394;2023-07-29T11:57:52;31.20;99.90
23540;DHT22;11947;50.810;4.394;2023-07-29T12:00:18;33.80;99.90
23540;DHT22;11947;50.810;4.394;2023-07-29T12:02:45;34.40;99.90
23540;DHT22;11947;50.810;4.394;2023-07-29T12:05:12;33.80;99.90
23540;DHT22;11947;50.810;4.394;2023-07-29T12:07:38;32.90;99.90
23540;DHT22;11947;50.810;4.394;2023-07-29T12:10:05;30.90;99.90
23540;DHT22;11947;50.810;4.394;2023-07-29T12:12:31;29.20;99.90
23540;DHT22;11947;50.810;4.394;2023-07-29T12:14:57;27.50;99.90
23540;DHT22;11947;50.810;4.394;2023-07-29T12:17:23;26.30;99.90
23540;DHT22;11947;50.810;4.394;2023-07-29T12:20:03;25.00;99.90
23540;DHT22;11947;50.810;4.394;2023-07-29T12:22:39;24.00;99.90
23540;DHT22;11947;50.810;4.394;2023-07-29T12:57:05;32.00;99.90
23540;DHT22;11947;50.810;4.394;2023-07-29T12:59:55;33.20;99.90
23540;DHT22;11947;50.810;4.394;2023-07-29T13:02:24;34.50;99.90
23540;DHT22;11947;50.810;4.394;2023-07-29T13:04:50;34.60;99.90
23540;DHT22;11947;50.810;4.394;2023-07-29T13:07:39;35.90;99.90
23540;DHT22;11947;50.810;4.394;2023-07-29T13:10:17;38.10;99.90
23540;DHT22;11947;50.810;4.394;2023-07-29T13:13:30;38.10;99.90
23540;DHT22;11947;50.810;4.394;2023-07-29T13:16:28;40.20;99.90
23540;DHT22;11947;50.810;4.394;2023-07-29T13:22:16;36.70;99.90
23540;DHT22;11947;50.810;4.394;2023-07-29T13:24:51;34.20;99.90
23540;DHT22;11947;50.810;4.394;2023-07-29T13:27:16;33.40;99.90
23540;DHT22;11947;50.810;4.394;2023-07-29T13:29:42;32.30;99.90
23540;DHT22;11947;50.810;4.394;2023-07-29T13:32:09;32.10;99.90
23540;DHT22;11947;50.810;4.394;2023-07-29T13:34:34;32.10;99.90
23540;DHT22;11947;50.810;4.394;2023-07-29T13:37:00;32.50;99.90
23540;DHT22;11947;50.810;4.394;2023-07-29T13:39:26;33.50;99.90
23540;DHT22;11947;50.810;4.394;2023-07-29T13:41:54;34.70;99.90
23540;DHT22;11947;50.810;4.394;2023-07-29T13:44:19;35.90;99.90
23540;DHT22;11947;50.810;4.394;2023-07-29T13:46:52;37.00;99.90
23540;DHT22;11947;50.810;4.394;2023-07-29T13:49:18;36.80;99.90
23540;DHT22;11947;50.810;4.394;2023-07-29T13:51:44;36.10;99.90
23540;DHT22;11947;50.810;4.394;2023-07-29T13:54:17;36.20;99.90
23540;DHT22;11947;50.810;4.394;2023-07-29T13:56:50;34.40;99.90
23540;DHT22;11947;50.810;4.394;2023-07-29T13:59:24;32.50;99.90
23540;DHT22;11947;50.810;4.394;2023-07-29T14:01:53;31.00;99.90
23540;DHT22;11947;50.810;4.394;2023-07-29T14:04:23;30.30;99.90
23540;DHT22;11947;50.810;4.394;2023-07-29T14:06:49;30.40;99.90
23540;DHT22;11947;50.810;4.394;2023-07-29T14:09:14;30.60;99.90
23540;DHT22;11947;50.810;4.394;2023-07-29T14:11:40;31.20;99.90
23540;DHT22;11947;50.810;4.394;2023-07-29T14:14:15;32.40;99.90
23540;DHT22;11947;50.810;4.394;2023-07-29T14:16:41;33.40;99.90
23540;DHT22;11947;50.810;4.394;2023-07-29T14:19:06;32.30;99.90
23540;DHT22;11947;50.810;4.394;2023-07-29T14:21:32;31.60;99.90
23540;DHT22;11947;50.810;4.394;2023-07-29T14:23:57;30.90;99.90
23540;DHT22;11947;50.810;4.394;2023-07-29T14:26:23;30.90;99.90
23540;DHT22;11947;50.810;4.394;2023-07-29T14:28:49;31.10;99.90
23540;DHT22;11947;50.810;4.394;2023-07-29T14:31:15;30.70;99.90
23540;DHT22;11947;50.810;4.394;2023-07-29T14:33:43;30.40;99.90
23540;DHT22;11947;50.810;4.394;2023-07-29T14:36:08;30.60;99.90
23540;DHT22;11947;50.810;4.394;2023-07-29T14:38:35;29.90;99.90
23540;DHT22;11947;50.810;4.394;2023-07-29T14:41:01;29.50;99.90
23540;DHT22;11947;50.810;4.394;2023-07-29T14:43:26;28.90;99.90
23540;DHT22;11947;50.810;4.394;2023-07-29T14:45:52;28.80;99.90
23540;DHT22;11947;50.810;4.394;2023-07-29T14:48:18;28.60;99.90
23540;DHT22;11947;50.810;4.394;2023-07-29T14:50:43;28.30;99.90
23540;DHT22;11947;50.810;4.394;2023-07-29T14:53:10;28.00;99.90
23540;DHT22;11947;50.810;4.394;2023-07-29T14:55:37;27.90;99.90
23540;DHT22;11947;50.810;4.394;2023-07-29T14:58:03;27.50;99.90
23540;DHT22;11947;50.810;4.394;2023-07-29T15:00:29;27.00;99.90
23540;DHT22;11947;50.810;4.394;2023-07-29T15:02:54;26.90;99.90
23540;DHT22;11947;50.810;4.394;2023-07-29T15:05:20;26.70;99.90
23540;DHT22;11947;50.810;4.394;2023-07-29T15:07:46;26.70;99.90
23540;DHT22;11947;50.810;4.394;2023-07-29T15:10:14;26.70;99.90
23540;DHT22;11947;50.810;4.394;2023-07-29T15:12:40;26.40;99.90
23540;DHT22;11947;50.810;4.394;2023-07-29T15:15:08;26.00;99.90
23540;DHT22;11947;50.810;4.394;2023-07-29T15:17:34;25.70;99.90
23540;DHT22;11947;50.810;4.394;2023-07-29T15:19:59;25.60;99.90
23540;DHT22;11947;50.810;4.394;2023-07-29T15:22:25;25.60;99.90
23540;DHT22;11947;50.810;4.394;2023-07-29T15:24:51;25.40;99.90
23540;DHT22;11947;50.810;4.394;2023-07-29T15:27:16;25.20;99.90
23540;DHT22;11947;50.810;4.394;2023-07-29T15:29:42;25.30;99.90
23540;DHT22;11947;50.810;4.394;2023-07-29T15:32:08;25.10;99.90
23540;DHT22;11947;50.810;4.394;2023-07-29T15:34:33;25.00;99.90
23540;DHT22;11947;50.810;4.394;2023-07-29T15:36:59;24.80;99.90
23540;DHT22;11947;50.810;4.394;2023-07-29T15:39:25;24.60;99.90
23540;DHT22;11947;50.810;4.394;2023-07-29T15:41:51;24.40;99.90
23540;DHT22;11947;50.810;4.394;2023-07-29T15:44:17;24.20;99.90
23540;DHT22;11947;50.810;4.394;2023-07-29T15:46:43;24.10;99.90
23540;DHT22;11947;50.810;4.394;2023-07-29T15:49:08;24.10;99.90
23540;DHT22;11947;50.810;4.394;2023-07-29T15:51:35;24.00;99.90
23540;DHT22;11947;50.810;4.394;2023-07-29T15:54:01;24.10;99.90
23540;DHT22;11947;50.810;4.394;2023-07-29T15:56:28;24.40;99.90
23540;DHT22;11947;50.810;4.394;2023-07-29T15:58:54;24.40;99.90
23540;DHT22;11947;50.810;4.394;2023-07-29T16:01:20;24.30;99.90
23540;DHT22;11947;50.810;4.394;2023-07-29T16:03:46;24.10;99.90
23540;DHT22;11947;50.810;4.394;2023-07-29T16:06:11;24.10;99.90
23540;DHT22;11947;50.810;4.394;2023-07-29T16:08:37;23.90;99.90
23540;DHT22;11947;50.810;4.394;2023-07-29T16:11:03;23.90;99.90
23540;DHT22;11947;50.810;4.394;2023-07-29T16:13:28;23.70;99.90
23540;DHT22;11947;50.810;4.394;2023-07-29T16:15:54;23.80;99.90
23540;DHT22;11947;50.810;4.394;2023-07-29T16:18:19;24.00;99.90
23540;DHT22;11947;50.810;4.394;2023-07-29T16:20:45;24.10;99.90
23540;DHT22;11947;50.810;4.394;2023-07-29T16:23:12;24.20;99.90
23540;DHT22;11947;50.810;4.394;2023-07-29T16:25:37;24.20;99.90
23540;DHT22;11947;50.810;4.394;2023-07-29T16:28:03;24.00;99.90
23540;DHT22;11947;50.810;4.394;2023-07-29T16:30:29;23.70;99.90
23540;DHT22;11947;50.810;4.394;2023-07-29T16:32:54;23.60;99.90
23540;DHT22;11947;50.810;4.394;2023-07-29T16:35:20;23.30;99.90
23540;DHT22;11947;50.810;4.394;2023-07-29T16:37:45;23.40;99.90
23540;DHT22;11947;50.810;4.394;2023-07-29T16:40:11;23.40;99.90
23540;DHT22;11947;50.810;4.394;2023-07-29T16:42:37;23.50;99.90
23540;DHT22;11947;50.810;4.394;2023-07-29T16:45:03;23.70;99.90
23540;DHT22;11947;50.810;4.394;2023-07-29T16:47:29;23.70;99.90
23540;DHT22;11947;50.810;4.394;2023-07-29T16:49:55;23.70;99.90
23540;DHT22;11947;50.810;4.394;2023-07-29T16:52:20;23.60;99.90
23540;DHT22;11947;50.810;4.394;2023-07-29T16:54:47;23.70;99.90
23540;DHT22;11947;50.810;4.394;2023-07-29T16:57:13;23.90;99.90
23540;DHT22;11947;50.810;4.394;2023-07-29T16:59:38;24.00;99.90
23540;DHT22;11947;50.810;4.394;2023-07-29T17:02:04;24.00;99.90
23540;DHT22;11947;50.810;4.394;2023-07-29T17:04:32;23.90;99.90
23540;DHT22;11947;50.810;4.394;2023-07-29T17:06:58;24.00;99.90
23540;DHT22;11947;50.810;4.394;2023-07-29T17:09:23;23.90;99.90
23540;DHT22;11947;50.810;4.394;2023-07-29T17:11:49;23.60;99.90
23540;DHT22;11947;50.810;4.394;2023-07-29T17:14:15;23.50;99.90
23540;DHT22;11947;50.810;4.394;2023-07-29T17:16:40;23.50;99.90
23540;DHT22;11947;50.810;4.394;2023-07-29T17:19:06;23.50;99.90
23540;DHT22;11947;50.810;4.394;2023-07-29T17:21:32;23.50;99.90
23540;DHT22;11947;50.810;4.394;2023-07-29T17:23:57;23.50;99.90
23540;DHT22;11947;50.810;4.394;2023-07-29T17:26:23;23.50;99.90
23540;DHT22;11947;50.810;4.394;2023-07-29T17:28:48;23.40;99.90
23540;DHT22;11947;50.810;4.394;2023-07-29T17:31:14;23.30;99.90
23540;DHT22;11947;50.810;4.394;2023-07-29T17:33:40;23.40;99.90
23540;DHT22;11947;50.810;4.394;2023-07-29T17:36:06;23.30;99.90
23540;DHT22;11947;50.810;4.394;2023-07-29T17:38:31;23.30;99.90
23540;DHT22;11947;50.810;4.394;2023-07-29T17:40:57;23.20;99.90
23540;DHT22;11947;50.810;4.394;2023-07-29T17:43:26;23.10;99.90
23540;DHT22;11947;50.810;4.394;2023-07-29T17:45:52;23.00;99.90
23540;DHT22;11947;50.810;4.394;2023-07-29T17:48:17;22.90;99.90
23540;DHT22;11947;50.810;4.394;2023-07-29T17:50:43;22.80;99.90
23540;DHT22;11947;50.810;4.394;2023-07-29T17:53:08;22.80;99.90
23540;DHT22;11947;50.810;4.394;2023-07-29T17:55:38;22.80;99.90
23540;DHT22;11947;50.810;4.394;2023-07-29T17:58:05;22.70;99.90
23540;DHT22;11947;50.810;4.394;2023-07-29T18:00:31;22.60;99.90